»·PEaware :: N292MC KALW-8W5

N292MC :: KALW-8W5

FLIGHT INFORMATION

Flight Status: Arrived
Operator: Privately registered:
United States
More flights under this callsign
Pilot: Maurice C. (12314)
Aircraft: Unknown
(KODI)
More flights by this aircraft type
Origin: KALW Walla Walla Regl
United States
Destination: 8W5 Apex Airpark
United States
More flights between these airports :: More routes between these airports
Route: YKM WHYTE ALDER TCM
File this flight plan on PilotEdge
Remarks: ALPHABET CHALLENGE
Altitude:
(Current/Filed)
8,500ft
Speed:
(Current/Filed)
180kts
Departed: 11-May-20 12:23 PM
Arrived: 11-May-20 01:45 PM
Distance/Time
Traveled:
205nm/1:22
Distance/Time
To Go:
Arrived

Flight Plot

Page will automatically refresh every two minutes.

Flight plan parsing failed; only flown route is shown


Map Options




Map Legend


Flown Route
Filed Route
Departure Airport
Arrival Airport
Navaid (VOR, NDB)
Fix

Horizontal Profiles

Position Reports

Time Latitude Longitude Heading Altitude Ground
Speed
11-May-20 12:14 46.092262 -118.280807 127 1193ft 0kts
11-May-20 12:15 46.092260 -118.280804 127 1193ft 0kts
11-May-20 12:16 46.092260 -118.280804 127 1193ft 0kts
11-May-20 12:17 46.092260 -118.280804 127 1193ft 0kts
11-May-20 12:18 46.092260 -118.280804 127 1193ft 0kts
11-May-20 12:19 46.092152 -118.281714 357 1190ft 5kts
11-May-20 12:20 46.097426 -118.276216 35 1203ft 12kts
11-May-20 12:21 46.099657 -118.275622 356 1203ft 11kts
11-May-20 12:22 46.095551 -118.280824 216 1208ft 86kts
11-May-20 12:23 46.073106 -118.311393 257 1917ft 140kts
11-May-20 12:24 46.090896 -118.363205 314 2611ft 152kts
11-May-20 12:25 46.118453 -118.407744 302 3436ft 147kts
11-May-20 12:26 46.133052 -118.463284 290 4198ft 154kts
11-May-20 12:27 46.147153 -118.524387 290 4937ft 163kts
11-May-20 12:28 46.161432 -118.586624 290 5642ft 164kts
11-May-20 12:29 46.175775 -118.649364 291 6322ft 165kts
11-May-20 12:30 46.189562 -118.709978 290 7201ft 160kts
11-May-20 12:31 46.204617 -118.770063 291 8101ft 160kts
11-May-20 12:32 46.219299 -118.833828 290 8541ft 182kts
11-May-20 12:33 46.235673 -118.905663 290 8533ft 191kts
11-May-20 12:34 46.252239 -118.979119 290 8526ft 193kts
11-May-20 12:35 46.268742 -119.052578 291 8523ft 193kts
11-May-20 12:36 46.285321 -119.126711 291 8509ft 193kts
11-May-20 12:37 46.301834 -119.200706 291 8504ft 194kts
11-May-20 12:38 46.317811 -119.275061 290 8491ft 194kts
11-May-20 12:39 46.334305 -119.349476 291 8488ft 194kts
11-May-20 12:40 46.350685 -119.423707 291 8482ft 194kts
11-May-20 12:41 46.367147 -119.498481 291 8478ft 194kts
11-May-20 12:42 46.383520 -119.573197 291 8475ft 194kts
11-May-20 12:43 46.399893 -119.648171 291 8469ft 195kts
11-May-20 12:44 46.415955 -119.722031 291 8519ft 195kts
11-May-20 12:45 46.432172 -119.796941 291 8519ft 195kts
11-May-20 12:46 46.448349 -119.871711 291 8532ft 194kts
11-May-20 12:47 46.464512 -119.946726 291 8542ft 194kts
11-May-20 12:48 46.480703 -120.021660 291 8556ft 195kts
11-May-20 12:49 46.496873 -120.097274 290 8549ft 196kts
11-May-20 12:50 46.512917 -120.172757 290 8545ft 196kts
11-May-20 12:51 46.528964 -120.248425 291 8543ft 195kts
11-May-20 12:52 46.544892 -120.323775 290 8538ft 195kts
11-May-20 12:53 46.560842 -120.399424 290 8533ft 195kts
11-May-20 12:54 46.572421 -120.476917 271 8473ft 198kts
11-May-20 12:55 46.571521 -120.557015 273 8470ft 197kts
11-May-20 12:56 46.572486 -120.636742 273 8464ft 198kts
11-May-20 12:57 46.573114 -120.699792 272 8518ft 196kts
11-May-20 12:58 46.573945 -120.785176 272 8511ft 197kts
11-May-20 12:59 46.574653 -120.867193 272 8507ft 197kts
11-May-20 13:00 46.575300 -120.946759 272 8503ft 197kts
11-May-20 13:01 46.575866 -121.026230 272 8498ft 197kts
11-May-20 13:02 46.576444 -121.105407 271 8497ft 195kts
11-May-20 13:03 46.576964 -121.184296 271 8494ft 195kts
11-May-20 13:04 46.577379 -121.263793 272 8500ft 195kts
11-May-20 13:05 46.577815 -121.343109 271 8481ft 197kts
11-May-20 13:06 46.577887 -121.422457 271 8481ft 196kts
11-May-20 13:07 46.578295 -121.501382 272 8459ft 197kts
11-May-20 13:08 46.578556 -121.580785 271 8421ft 199kts
11-May-20 13:09 46.580470 -121.657572 287 8407ft 199kts
11-May-20 13:10 46.605795 -121.727810 298 8452ft 196kts
11-May-20 13:11 46.628543 -121.799994 298 8428ft 196kts
11-May-20 13:12 46.651812 -121.871536 298 8424ft 195kts
11-May-20 13:13 46.674359 -121.943121 297 8439ft 194kts
11-May-20 13:14 46.696906 -122.014649 298 8447ft 195kts
11-May-20 13:15 46.719969 -122.086792 297 8410ft 197kts
11-May-20 13:16 46.743249 -122.161518 296 7873ft 209kts
11-May-20 13:17 46.767440 -122.238118 295 7143ft 209kts
11-May-20 13:18 46.790996 -122.313586 295 6439ft 203kts
11-May-20 13:19 46.813119 -122.384991 294 6423ft 189kts
11-May-20 13:20 46.851761 -122.426384 5 6283ft 190kts
11-May-20 13:21 46.903366 -122.427688 352 5641ft 199kts
11-May-20 13:22 46.952733 -122.437544 354 4983ft 200kts
11-May-20 13:23 47.009239 -122.448035 353 4443ft 189kts
11-May-20 13:24 47.054947 -122.456798 354 4455ft 177kts
11-May-20 13:25 47.102123 -122.465633 353 4453ft 177kts
11-May-20 13:26 47.141549 -122.473020 354 4528ft 176kts
11-May-20 13:27 47.180987 -122.491570 333 4513ft 178kts
11-May-20 13:28 47.218045 -122.516789 337 4507ft 178kts
11-May-20 13:29 47.254298 -122.540682 335 4507ft 178kts
11-May-20 13:30 47.291502 -122.566463 335 4506ft 178kts
11-May-20 13:31 47.328000 -122.591475 336 4500ft 178kts
11-May-20 13:32 47.363291 -122.614852 336 4499ft 178kts
11-May-20 13:33 47.396156 -122.636590 336 4488ft 177kts
11-May-20 13:34 47.426772 -122.656816 335 4485ft 176kts
11-May-20 13:35 47.463102 -122.679325 342 4538ft 175kts
11-May-20 13:36 47.501884 -122.691869 348 4175ft 178kts
11-May-20 13:37 47.536781 -122.702068 348 3364ft 141kts
11-May-20 13:38 47.568048 -122.708799 352 2481ft 121kts
11-May-20 13:39 47.596528 -122.712601 350 1711ft 105kts
11-May-20 13:40 47.622256 -122.712350 9 1471ft 97kts
11-May-20 13:41 47.648456 -122.704444 3 1969ft 110kts
11-May-20 13:42 47.676607 -122.705224 289 1853ft 116kts
11-May-20 13:43 47.666191 -122.731154 187 683ft 70kts
11-May-20 13:44 47.656756 -122.733074 187 528ft 26kts
11-May-20 13:45 47.655897 -122.732997 47 518ft 0kts
11-May-20 13:46 47.655896 -122.732998 46 518ft 0kts
11-May-20 13:47 47.655896 -122.732998 46 518ft 0kts
11-May-20 13:48 47.655896 -122.732998 46 518ft 0kts
11-May-20 13:49 47.655896 -122.732998 46 518ft 0kts

Navigation Log

Ident Type
Flight plan parsing failed, navigation log unavailable